sensor_id;sensor_type;location;lat;lon;timestamp;temperature;humidity
21439;DHT22;10880;50.302;18.736;2022-12-10T00:01:34;7.60;63.30
21439;DHT22;10880;50.302;18.736;2022-12-10T00:04:01;7.60;63.30
21439;DHT22;10880;50.302;18.736;2022-12-10T00:06:33;7.60;63.30
21439;DHT22;10880;50.302;18.736;2022-12-10T00:09:00;7.60;63.20
21439;DHT22;10880;50.302;18.736;2022-12-10T00:11:27;7.60;62.80
21439;DHT22;10880;50.302;18.736;2022-12-10T00:13:54;7.60;63.20
21439;DHT22;10880;50.302;18.736;2022-12-10T00:16:22;7.60;62.80
21439;DHT22;10880;50.302;18.736;2022-12-10T00:18:50;7.60;62.80
21439;DHT22;10880;50.302;18.736;2022-12-10T00:21:22;7.60;62.80
21439;DHT22;10880;50.302;18.736;2022-12-10T00:23:49;7.60;62.90
21439;DHT22;10880;50.302;18.736;2022-12-10T00:26:18;7.60;63.40
21439;DHT22;10880;50.302;18.736;2022-12-10T00:28:46;7.60;62.60
21439;DHT22;10880;50.302;18.736;2022-12-10T00:31:21;7.60;62.70
21439;DHT22;10880;50.302;18.736;2022-12-10T00:33:48;7.60;63.40
21439;DHT22;10880;50.302;18.736;2022-12-10T00:36:17;7.60;63.10
21439;DHT22;10880;50.302;18.736;2022-12-10T00:41:12;7.60;62.80
21439;DHT22;10880;50.302;18.736;2022-12-10T00:43:39;7.50;63.30
21439;DHT22;10880;50.302;18.736;2022-12-10T00:46:07;7.50;63.30
21439;DHT22;10880;50.302;18.736;2022-12-10T00:51:09;7.50;62.70
21439;DHT22;10880;50.302;18.736;2022-12-10T00:53:39;7.50;63.30
21439;DHT22;10880;50.302;18.736;2022-12-10T00:56:07;7.50;62.80
21439;DHT22;10880;50.302;18.736;2022-12-10T00:58:36;7.40;62.70
21439;DHT22;10880;50.302;18.736;2022-12-10T01:03:36;7.50;62.80
21439;DHT22;10880;50.302;18.736;2022-12-10T01:06:13;7.50;63.30
21439;DHT22;10880;50.302;18.736;2022-12-10T01:08:42;7.50;63.40
21439;DHT22;10880;50.302;18.736;2022-12-10T01:11:10;7.50;63.40
21439;DHT22;10880;50.302;18.736;2022-12-10T01:16:05;7.50;62.80
21439;DHT22;10880;50.302;18.736;2022-12-10T01:18:32;7.40;63.30
21439;DHT22;10880;50.302;18.736;2022-12-10T01:21:08;7.50;63.20
21439;DHT22;10880;50.302;18.736;2022-12-10T01:23:37;7.50;63.40
21439;DHT22;10880;50.302;18.736;2022-12-10T01:26:10;7.40;62.80
21439;DHT22;10880;50.302;18.736;2022-12-10T01:28:39;7.50;62.80
21439;DHT22;10880;50.302;18.736;2022-12-10T01:31:15;7.50;63.40
21439;DHT22;10880;50.302;18.736;2022-12-10T01:33:43;7.50;63.40
21439;DHT22;10880;50.302;18.736;2022-12-10T01:36:22;7.50;62.90
21439;DHT22;10880;50.302;18.736;2022-12-10T01:38:50;7.40;63.40
21439;DHT22;10880;50.302;18.736;2022-12-10T01:41:32;7.40;63.40
21439;DHT22;10880;50.302;18.736;2022-12-10T01:43:59;7.40;63.40
21439;DHT22;10880;50.302;18.736;2022-12-10T01:46:30;7.40;62.80
21439;DHT22;10880;50.302;18.736;2022-12-10T01:48:58;7.40;63.30
21439;DHT22;10880;50.302;18.736;2022-12-10T01:51:28;7.40;63.40
21439;DHT22;10880;50.302;18.736;2022-12-10T01:53:57;7.40;63.40
21439;DHT22;10880;50.302;18.736;2022-12-10T01:56:24;7.40;63.40
21439;DHT22;10880;50.302;18.736;2022-12-10T01:58:52;7.40;62.90
21439;DHT22;10880;50.302;18.736;2022-12-10T02:07:01;7.40;63.00
21439;DHT22;10880;50.302;18.736;2022-12-10T02:12:28;7.50;63.40
21439;DHT22;10880;50.302;18.736;2022-12-10T02:17:53;7.40;63.00
21439;DHT22;10880;50.302;18.736;2022-12-10T02:20:36;7.40;63.00
21439;DHT22;10880;50.302;18.736;2022-12-10T02:23:11;7.40;63.10
21439;DHT22;10880;50.302;18.736;2022-12-10T02:25:45;7.50;63.20
21439;DHT22;10880;50.302;18.736;2022-12-10T02:31:17;7.50;63.70
21439;DHT22;10880;50.302;18.736;2022-12-10T02:33:50;7.50;63.10
21439;DHT22;10880;50.302;18.736;2022-12-10T02:36:19;7.50;63.70
21439;DHT22;10880;50.302;18.736;2022-12-10T02:38:49;7.50;63.00
21439;DHT22;10880;50.302;18.736;2022-12-10T02:41:43;7.50;63.10
21439;DHT22;10880;50.302;18.736;2022-12-10T02:44:14;7.50;63.70
21439;DHT22;10880;50.302;18.736;2022-12-10T02:46:42;7.50;63.60
21439;DHT22;10880;50.302;18.736;2022-12-10T02:49:13;7.50;63.10
21439;DHT22;10880;50.302;18.736;2022-12-10T02:51:41;7.50;63.60
21439;DHT22;10880;50.302;18.736;2022-12-10T03:06:09;7.40;62.80
21439;DHT22;10880;50.302;18.736;2022-12-10T03:11:29;7.40;63.10
21439;DHT22;10880;50.302;18.736;2022-12-10T03:14:04;7.40;63.10
21439;DHT22;10880;50.302;18.736;2022-12-10T03:16:36;7.80;63.40
21439;DHT22;10880;50.302;18.736;2022-12-10T03:19:07;7.40;63.20
21439;DHT22;10880;50.302;18.736;2022-12-10T03:21:37;7.40;63.80
21439;DHT22;10880;50.302;18.736;2022-12-10T03:24:09;7.40;63.30
21439;DHT22;10880;50.302;18.736;2022-12-10T03:26:38;7.40;63.80
21439;DHT22;10880;50.302;18.736;2022-12-10T03:29:12;7.40;63.20
21439;DHT22;10880;50.302;18.736;2022-12-10T03:31:41;7.40;63.20
21439;DHT22;10880;50.302;18.736;2022-12-10T03:34:09;7.40;64.60
21439;DHT22;10880;50.302;18.736;2022-12-10T03:36:37;7.40;63.30
21439;DHT22;10880;50.302;18.736;2022-12-10T03:39:05;7.40;63.80
21439;DHT22;10880;50.302;18.736;2022-12-10T03:41:32;7.40;63.20
21439;DHT22;10880;50.302;18.736;2022-12-10T03:43:59;7.50;63.10
21439;DHT22;10880;50.302;18.736;2022-12-10T03:46:30;7.40;63.20
21439;DHT22;10880;50.302;18.736;2022-12-10T03:48:59;7.40;63.20
21439;DHT22;10880;50.302;18.736;2022-12-10T03:51:26;7.50;63.40
21439;DHT22;10880;50.302;18.736;2022-12-10T03:53:52;7.50;63.40
21439;DHT22;10880;50.302;18.736;2022-12-10T03:56:19;7.50;63.40
21439;DHT22;10880;50.302;18.736;2022-12-10T03:58:46;7.50;63.50
21439;DHT22;10880;50.302;18.736;2022-12-10T04:01:13;7.50;63.40
21439;DHT22;10880;50.302;18.736;2022-12-10T04:03:42;7.50;63.30
21439;DHT22;10880;50.302;18.736;2022-12-10T04:06:13;7.50;63.20
21439;DHT22;10880;50.302;18.736;2022-12-10T04:08:40;7.50;63.80
21439;DHT22;10880;50.302;18.736;2022-12-10T04:11:09;7.50;63.20
21439;DHT22;10880;50.302;18.736;2022-12-10T04:13:37;7.50;63.20
21439;DHT22;10880;50.302;18.736;2022-12-10T04:16:24;7.40;63.20
21439;DHT22;10880;50.302;18.736;2022-12-10T04:18:56;7.40;63.40
21439;DHT22;10880;50.302;18.736;2022-12-10T04:21:23;7.50;63.20
21439;DHT22;10880;50.302;18.736;2022-12-10T04:24:10;7.40;63.70
21439;DHT22;10880;50.302;18.736;2022-12-10T04:26:56;7.40;63.80
21439;DHT22;10880;50.302;18.736;2022-12-10T04:29:27;7.40;63.90
21439;DHT22;10880;50.302;18.736;2022-12-10T04:31:55;7.40;63.90
21439;DHT22;10880;50.302;18.736;2022-12-10T04:34:22;7.40;63.80
21439;DHT22;10880;50.302;18.736;2022-12-10T04:36:49;7.40;63.80
21439;DHT22;10880;50.302;18.736;2022-12-10T04:39:16;7.40;63.70
21439;DHT22;10880;50.302;18.736;2022-12-10T04:41:44;7.40;63.60
21439;DHT22;10880;50.302;18.736;2022-12-10T04:44:11;7.40;63.50
21439;DHT22;10880;50.302;18.736;2022-12-10T04:46:38;7.40;63.90
21439;DHT22;10880;50.302;18.736;2022-12-10T04:49:05;7.30;63.60
21439;DHT22;10880;50.302;18.736;2022-12-10T04:51:32;7.30;63.40
21439;DHT22;10880;50.302;18.736;2022-12-10T04:53:59;7.40;63.60
21439;DHT22;10880;50.302;18.736;2022-12-10T04:56:26;7.40;63.50
21439;DHT22;10880;50.302;18.736;2022-12-10T04:58:55;7.40;64.10
21439;DHT22;10880;50.302;18.736;2022-12-10T05:01:22;7.40;64.00
21439;DHT22;10880;50.302;18.736;2022-12-10T05:03:48;7.40;63.50
21439;DHT22;10880;50.302;18.736;2022-12-10T05:06:16;7.40;63.50
21439;DHT22;10880;50.302;18.736;2022-12-10T05:08:43;7.40;63.40
21439;DHT22;10880;50.302;18.736;2022-12-10T05:11:16;7.40;63.90
21439;DHT22;10880;50.302;18.736;2022-12-10T05:13:43;7.40;63.40
21439;DHT22;10880;50.302;18.736;2022-12-10T05:16:13;7.40;63.90
21439;DHT22;10880;50.302;18.736;2022-12-10T05:18:40;7.40;63.90
21439;DHT22;10880;50.302;18.736;2022-12-10T05:21:09;7.40;63.50
21439;DHT22;10880;50.302;18.736;2022-12-10T05:23:37;7.40;63.90
21439;DHT22;10880;50.302;18.736;2022-12-10T05:26:05;7.40;63.50
21439;DHT22;10880;50.302;18.736;2022-12-10T05:28:38;7.40;63.50
21439;DHT22;10880;50.302;18.736;2022-12-10T05:31:05;7.40;63.50
21439;DHT22;10880;50.302;18.736;2022-12-10T05:33:32;7.40;63.40
21439;DHT22;10880;50.302;18.736;2022-12-10T05:36:01;7.40;63.50
21439;DHT22;10880;50.302;18.736;2022-12-10T05:38:30;7.40;63.50
21439;DHT22;10880;50.302;18.736;2022-12-10T05:41:05;7.40;64.00
21439;DHT22;10880;50.302;18.736;2022-12-10T05:43:32;7.40;63.50
21439;DHT22;10880;50.302;18.736;2022-12-10T05:46:00;7.40;63.50
21439;DHT22;10880;50.302;18.736;2022-12-10T05:48:27;7.40;64.10
21439;DHT22;10880;50.302;18.736;2022-12-10T05:50:54;7.40;64.00
21439;DHT22;10880;50.302;18.736;2022-12-10T05:53:20;7.40;63.70
21439;DHT22;10880;50.302;18.736;2022-12-10T05:55:47;7.30;63.40
21439;DHT22;10880;50.302;18.736;2022-12-10T06:03:08;7.40;63.40
21439;DHT22;10880;50.302;18.736;2022-12-10T06:05:39;7.40;63.40
21439;DHT22;10880;50.302;18.736;2022-12-10T06:08:07;7.40;63.40
21439;DHT22;10880;50.302;18.736;2022-12-10T06:10:34;7.40;63.40
21439;DHT22;10880;50.302;18.736;2022-12-10T06:13:04;7.40;63.40
21439;DHT22;10880;50.302;18.736;2022-12-10T06:15:32;7.30;63.90
21439;DHT22;10880;50.302;18.736;2022-12-10T06:17:59;7.30;63.00
21439;DHT22;10880;50.302;18.736;2022-12-10T06:20:26;7.30;63.30
21439;DHT22;10880;50.302;18.736;2022-12-10T06:22:52;8.80;64.40
21439;DHT22;10880;50.302;18.736;2022-12-10T06:25:20;7.20;63.70
21439;DHT22;10880;50.302;18.736;2022-12-10T06:27:47;7.20;63.40
21439;DHT22;10880;50.302;18.736;2022-12-10T06:30:13;7.20;63.50
21439;DHT22;10880;50.302;18.736;2022-12-10T06:35:09;7.20;63.60
21439;DHT22;10880;50.302;18.736;2022-12-10T06:37:36;7.20;64.20
21439;DHT22;10880;50.302;18.736;2022-12-10T06:40:04;7.20;64.00
21439;DHT22;10880;50.302;18.736;2022-12-10T06:42:30;7.20;64.20
21439;DHT22;10880;50.302;18.736;2022-12-10T06:47:23;7.20;63.70
21439;DHT22;10880;50.302;18.736;2022-12-10T06:49:50;7.20;63.70
21439;DHT22;10880;50.302;18.736;2022-12-10T06:52:16;7.20;63.80
21439;DHT22;10880;50.302;18.736;2022-12-10T06:57:09;7.20;63.80
21439;DHT22;10880;50.302;18.736;2022-12-10T06:59:36;7.30;64.00
21439;DHT22;10880;50.302;18.736;2022-12-10T07:02:02;7.30;63.90
21439;DHT22;10880;50.302;18.736;2022-12-10T07:06:55;7.30;63.80
21439;DHT22;10880;50.302;18.736;2022-12-10T07:09:22;7.30;63.90
21439;DHT22;10880;50.302;18.736;2022-12-10T07:11:48;7.30;63.90
21439;DHT22;10880;50.302;18.736;2022-12-10T07:14:16;7.40;63.60
21439;DHT22;10880;50.302;18.736;2022-12-10T07:16:42;7.40;63.80
21439;DHT22;10880;50.302;18.736;2022-12-10T07:19:10;7.40;63.70
21439;DHT22;10880;50.302;18.736;2022-12-10T07:21:40;7.40;64.30
21439;DHT22;10880;50.302;18.736;2022-12-10T07:24:10;7.40;64.30
21439;DHT22;10880;50.302;18.736;2022-12-10T07:26:40;7.40;63.80
21439;DHT22;10880;50.302;18.736;2022-12-10T07:29:11;7.40;63.70
21439;DHT22;10880;50.302;18.736;2022-12-10T07:31:38;7.40;63.80
21439;DHT22;10880;50.302;18.736;2022-12-10T07:34:04;7.40;63.70
21439;DHT22;10880;50.302;18.736;2022-12-10T07:38:58;7.40;63.70
21439;DHT22;10880;50.302;18.736;2022-12-10T07:41:25;7.50;63.90
21439;DHT22;10880;50.302;18.736;2022-12-10T07:43:52;7.40;63.80
21439;DHT22;10880;50.302;18.736;2022-12-10T07:46:30;7.40;63.80
21439;DHT22;10880;50.302;18.736;2022-12-10T07:51:23;7.50;63.80
21439;DHT22;10880;50.302;18.736;2022-12-10T07:53:53;7.50;63.70
21439;DHT22;10880;50.302;18.736;2022-12-10T07:56:21;7.50;63.70
21439;DHT22;10880;50.302;18.736;2022-12-10T07:58:48;7.50;64.30
21439;DHT22;10880;50.302;18.736;2022-12-10T08:01:21;7.50;63.60
21439;DHT22;10880;50.302;18.736;2022-12-10T08:03:53;7.50;63.60
21439;DHT22;10880;50.302;18.736;2022-12-10T08:06:23;7.50;63.40
21439;DHT22;10880;50.302;18.736;2022-12-10T08:08:50;7.50;63.40
21439;DHT22;10880;50.302;18.736;2022-12-10T08:11:18;7.50;63.50
21439;DHT22;10880;50.302;18.736;2022-12-10T08:13:46;7.40;63.30
21439;DHT22;10880;50.302;18.736;2022-12-10T08:16:20;7.40;63.30
21439;DHT22;10880;50.302;18.736;2022-12-10T08:18:49;7.40;63.40
21439;DHT22;10880;50.302;18.736;2022-12-10T08:21:21;7.30;63.50
21439;DHT22;10880;50.302;18.736;2022-12-10T08:23:48;7.30;63.40
21439;DHT22;10880;50.302;18.736;2022-12-10T08:26:20;7.30;63.40
21439;DHT22;10880;50.302;18.736;2022-12-10T08:28:49;7.30;63.60
21439;DHT22;10880;50.302;18.736;2022-12-10T08:31:17;7.30;63.60
21439;DHT22;10880;50.302;18.736;2022-12-10T08:33:44;7.30;63.60
21439;DHT22;10880;50.302;18.736;2022-12-10T08:36:13;7.30;63.60
21439;DHT22;10880;50.302;18.736;2022-12-10T08:38:40;7.20;64.20
21439;DHT22;10880;50.302;18.736;2022-12-10T08:41:11;7.20;63.60
21439;DHT22;10880;50.302;18.736;2022-12-10T08:43:39;7.20;63.70
21439;DHT22;10880;50.302;18.736;2022-12-10T08:46:05;7.20;63.60
21439;DHT22;10880;50.302;18.736;2022-12-10T08:48:32;7.20;63.60
21439;DHT22;10880;50.302;18.736;2022-12-10T08:50:59;7.20;63.80
21439;DHT22;10880;50.302;18.736;2022-12-10T08:53:25;7.20;63.80
21439;DHT22;10880;50.302;18.736;2022-12-10T08:55:53;7.20;63.70
21439;DHT22;10880;50.302;18.736;2022-12-10T08:58:20;7.20;63.80
21439;DHT22;10880;50.302;18.736;2022-12-10T09:00:49;7.20;63.80
21439;DHT22;10880;50.302;18.736;2022-12-10T09:03:16;7.20;63.80
21439;DHT22;10880;50.302;18.736;2022-12-10T09:05:43;7.10;63.80
21439;DHT22;10880;50.302;18.736;2022-12-10T09:08:10;7.20;64.00
21439;DHT22;10880;50.302;18.736;2022-12-10T09:10:38;7.20;63.90
21439;DHT22;10880;50.302;18.736;2022-12-10T09:13:05;7.20;63.90
21439;DHT22;10880;50.302;18.736;2022-12-10T09:15:31;7.20;64.00
21439;DHT22;10880;50.302;18.736;2022-12-10T09:17:58;7.20;63.90
21439;DHT22;10880;50.302;18.736;2022-12-10T09:20:25;7.20;63.80
21439;DHT22;10880;50.302;18.736;2022-12-10T09:22:52;7.20;63.90
21439;DHT22;10880;50.302;18.736;2022-12-10T09:25:19;7.20;64.20
21439;DHT22;10880;50.302;18.736;2022-12-10T09:27:47;7.20;63.80
21439;DHT22;10880;50.302;18.736;2022-12-10T09:30:15;7.20;64.10
21439;DHT22;10880;50.302;18.736;2022-12-10T09:32:41;7.10;63.80
21439;DHT22;10880;50.302;18.736;2022-12-10T09:37:35;7.10;63.90
21439;DHT22;10880;50.302;18.736;2022-12-10T09:40:02;7.10;64.00
21439;DHT22;10880;50.302;18.736;2022-12-10T09:53:14;7.10;64.20
21439;DHT22;10880;50.302;18.736;2022-12-10T09:55:46;7.10;64.00
21439;DHT22;10880;50.302;18.736;2022-12-10T09:58:19;7.10;64.00
21439;DHT22;10880;50.302;18.736;2022-12-10T10:03:16;7.00;63.90
21439;DHT22;10880;50.302;18.736;2022-12-10T10:05:53;7.10;64.00
21439;DHT22;10880;50.302;18.736;2022-12-10T10:08:42;7.00;64.00
21439;DHT22;10880;50.302;18.736;2022-12-10T10:11:36;7.10;64.10
21439;DHT22;10880;50.302;18.736;2022-12-10T10:14:24;7.00;64.00
21439;DHT22;10880;50.302;18.736;2022-12-10T10:17:04;7.00;64.10
21439;DHT22;10880;50.302;18.736;2022-12-10T10:22:04;7.00;64.20
21439;DHT22;10880;50.302;18.736;2022-12-10T10:24:38;7.00;64.10
21439;DHT22;10880;50.302;18.736;2022-12-10T10:27:21;7.10;64.20
21439;DHT22;10880;50.302;18.736;2022-12-10T10:29:50;7.10;64.30
21439;DHT22;10880;50.302;18.736;2022-12-10T10:35:03;7.10;64.40
21439;DHT22;10880;50.302;18.736;2022-12-10T10:37:40;7.10;64.20
21439;DHT22;10880;50.302;18.736;2022-12-10T10:40:25;7.10;64.30
21439;DHT22;10880;50.302;18.736;2022-12-10T10:42:54;7.10;64.90
21439;DHT22;10880;50.302;18.736;2022-12-10T10:45:41;7.20;64.30
21439;DHT22;10880;50.302;18.736;2022-12-10T10:48:21;7.20;64.90
21439;DHT22;10880;50.302;18.736;2022-12-10T10:50:50;7.20;64.30
21439;DHT22;10880;50.302;18.736;2022-12-10T10:53:27;7.20;64.20
21439;DHT22;10880;50.302;18.736;2022-12-10T10:56:04;7.20;64.20
21439;DHT22;10880;50.302;18.736;2022-12-10T11:01:07;7.20;64.20
21439;DHT22;10880;50.302;18.736;2022-12-10T11:03:35;7.30;64.70
21439;DHT22;10880;50.302;18.736;2022-12-10T11:06:06;7.30;64.70
21439;DHT22;10880;50.302;18.736;2022-12-10T11:08:37;7.30;64.20
21439;DHT22;10880;50.302;18.736;2022-12-10T11:11:40;7.30;64.10
21439;DHT22;10880;50.302;18.736;2022-12-10T11:14:26;7.30;64.70
21439;DHT22;10880;50.302;18.736;2022-12-10T11:17:22;7.30;64.70
21439;DHT22;10880;50.302;18.736;2022-12-10T11:22:27;7.30;64.10
21439;DHT22;10880;50.302;18.736;2022-12-10T11:24:54;7.30;64.70
21439;DHT22;10880;50.302;18.736;2022-12-10T11:30:23;7.30;64.80
21439;DHT22;10880;50.302;18.736;2022-12-10T11:36:04;7.40;64.80
21439;DHT22;10880;50.302;18.736;2022-12-10T11:38:37;7.40;64.00
21439;DHT22;10880;50.302;18.736;2022-12-10T11:52:20;7.40;63.90
21439;DHT22;10880;50.302;18.736;2022-12-10T12:15:17;7.40;64.40
21439;DHT22;10880;50.302;18.736;2022-12-10T12:17:52;7.40;63.90
21439;DHT22;10880;50.302;18.736;2022-12-10T12:20:37;7.30;64.30
21439;DHT22;10880;50.302;18.736;2022-12-10T12:25:56;7.30;64.00
21439;DHT22;10880;50.302;18.736;2022-12-10T12:28:27;7.30;63.90
21439;DHT22;10880;50.302;18.736;2022-12-10T12:31:11;7.30;63.90
21439;DHT22;10880;50.302;18.736;2022-12-10T12:33:53;7.30;63.80
21439;DHT22;10880;50.302;18.736;2022-12-10T12:36:22;7.30;63.90
21439;DHT22;10880;50.302;18.736;2022-12-10T12:39:24;7.30;63.90
21439;DHT22;10880;50.302;18.736;2022-12-10T12:44:44;7.30;63.90
21439;DHT22;10880;50.302;18.736;2022-12-10T12:49:53;7.40;63.80
21439;DHT22;10880;50.302;18.736;2022-12-10T12:52:40;7.30;64.40
21439;DHT22;10880;50.302;18.736;2022-12-10T12:55:19;7.40;64.60
21439;DHT22;10880;50.302;18.736;2022-12-10T13:00:18;7.40;63.70
21439;DHT22;10880;50.302;18.736;2022-12-10T13:05:36;7.30;64.00
21439;DHT22;10880;50.302;18.736;2022-12-10T13:13:34;7.30;63.90
21439;DHT22;10880;50.302;18.736;2022-12-10T13:16:43;7.30;64.40
21439;DHT22;10880;50.302;18.736;2022-12-10T13:22:01;7.30;64.10
21439;DHT22;10880;50.302;18.736;2022-12-10T13:27:19;7.20;63.70
21439;DHT22;10880;50.302;18.736;2022-12-10T13:29:55;7.20;64.40
21439;DHT22;10880;50.302;18.736;2022-12-10T13:37:53;7.20;64.20
21439;DHT22;10880;50.302;18.736;2022-12-10T13:46:40;7.20;64.40
21439;DHT22;10880;50.302;18.736;2022-12-10T13:49:21;7.20;63.80
21439;DHT22;10880;50.302;18.736;2022-12-10T13:51:54;7.50;63.90
21439;DHT22;10880;50.302;18.736;2022-12-10T14:02:56;6.10;63.20
21439;DHT22;10880;50.302;18.736;2022-12-10T14:08:33;7.10;64.60
21439;DHT22;10880;50.302;18.736;2022-12-10T14:11:02;7.20;63.90
21439;DHT22;10880;50.302;18.736;2022-12-10T14:13:39;7.20;64.50
21439;DHT22;10880;50.302;18.736;2022-12-10T14:16:11;7.20;64.60
21439;DHT22;10880;50.302;18.736;2022-12-10T14:18:38;7.20;63.90
21439;DHT22;10880;50.302;18.736;2022-12-10T14:23:35;7.20;64.00
21439;DHT22;10880;50.302;18.736;2022-12-10T14:29:31;7.20;64.60
21439;DHT22;10880;50.302;18.736;2022-12-10T14:31:47;7.30;64.60
21439;DHT22;10880;50.302;18.736;2022-12-10T14:34:18;7.20;64.40
21439;DHT22;10880;50.302;18.736;2022-12-10T14:36:49;7.30;63.90
21439;DHT22;10880;50.302;18.736;2022-12-10T14:39:19;7.30;65.20
21439;DHT22;10880;50.302;18.736;2022-12-10T14:41:48;7.30;63.90
21439;DHT22;10880;50.302;18.736;2022-12-10T14:44:16;7.30;64.60
21439;DHT22;10880;50.302;18.736;2022-12-10T14:46:44;7.30;64.00
21439;DHT22;10880;50.302;18.736;2022-12-10T14:49:19;7.30;63.90
21439;DHT22;10880;50.302;18.736;2022-12-10T14:51:46;7.30;64.50
21439;DHT22;10880;50.302;18.736;2022-12-10T14:54:32;7.30;63.90
21439;DHT22;10880;50.302;18.736;2022-12-10T14:57:04;7.40;63.90
21439;DHT22;10880;50.302;18.736;2022-12-10T14:59:45;7.40;64.60
21439;DHT22;10880;50.302;18.736;2022-12-10T15:02:30;7.40;63.90
21439;DHT22;10880;50.302;18.736;2022-12-10T15:04:58;7.40;64.50
21439;DHT22;10880;50.302;18.736;2022-12-10T15:07:33;7.40;64.30
21439;DHT22;10880;50.302;18.736;2022-12-10T15:12:47;7.40;63.80
21439;DHT22;10880;50.302;18.736;2022-12-10T15:15:37;7.40;63.80
21439;DHT22;10880;50.302;18.736;2022-12-10T15:20:46;7.40;64.00
21439;DHT22;10880;50.302;18.736;2022-12-10T15:33:48;7.40;64.20
21439;DHT22;10880;50.302;18.736;2022-12-10T15:39:04;7.30;63.50
21439;DHT22;10880;50.302;18.736;2022-12-10T15:41:41;7.30;63.50
21439;DHT22;10880;50.302;18.736;2022-12-10T15:44:41;7.30;64.00
21439;DHT22;10880;50.302;18.736;2022-12-10T15:47:24;7.30;63.70
21439;DHT22;10880;50.302;18.736;2022-12-10T15:49:53;7.30;64.20
21439;DHT22;10880;50.302;18.736;2022-12-10T15:52:26;7.20;64.10
21439;DHT22;10880;50.302;18.736;2022-12-10T15:54:54;7.20;64.10
21439;DHT22;10880;50.302;18.736;2022-12-10T15:57:33;7.20;63.60
21439;DHT22;10880;50.302;18.736;2022-12-10T16:00:02;7.20;64.30
21439;DHT22;10880;50.302;18.736;2022-12-10T16:02:54;7.10;63.60
21439;DHT22;10880;50.302;18.736;2022-12-10T16:05:32;7.20;64.20
21439;DHT22;10880;50.302;18.736;2022-12-10T16:08:20;7.10;63.60
21439;DHT22;10880;50.302;18.736;2022-12-10T16:10:48;7.10;64.20
21439;DHT22;10880;50.302;18.736;2022-12-10T16:13:19;7.10;63.60
21439;DHT22;10880;50.302;18.736;2022-12-10T16:18:17;7.10;63.80
21439;DHT22;10880;50.302;18.736;2022-12-10T16:23:11;7.00;63.70
21439;DHT22;10880;50.302;18.736;2022-12-10T16:25:38;7.00;63.70
21439;DHT22;10880;50.302;18.736;2022-12-10T16:28:15;7.00;64.10
21439;DHT22;10880;50.302;18.736;2022-12-10T16:30:45;7.00;64.40
21439;DHT22;10880;50.302;18.736;2022-12-10T16:33:12;7.00;64.50
21439;DHT22;10880;50.302;18.736;2022-12-10T16:35:39;7.00;64.20
21439;DHT22;10880;50.302;18.736;2022-12-10T16:38:08;7.00;63.90
21439;DHT22;10880;50.302;18.736;2022-12-10T16:40:35;6.90;64.40
21439;DHT22;10880;50.302;18.736;2022-12-10T16:43:03;6.90;63.90
21439;DHT22;10880;50.302;18.736;2022-12-10T16:45:37;6.90;63.90
21439;DHT22;10880;50.302;18.736;2022-12-10T16:48:04;6.90;63.90
21439;DHT22;10880;50.302;18.736;2022-12-10T16:50:31;6.90;63.90
21439;DHT22;10880;50.302;18.736;2022-12-10T16:53:03;6.90;63.90
21439;DHT22;10880;50.302;18.736;2022-12-10T16:55:30;7.30;64.70
21439;DHT22;10880;50.302;18.736;2022-12-10T16:57:56;6.90;64.00
21439;DHT22;10880;50.302;18.736;2022-12-10T17:00:24;6.90;64.60
21439;DHT22;10880;50.302;18.736;2022-12-10T17:02:51;6.90;64.40
21439;DHT22;10880;50.302;18.736;2022-12-10T17:05:29;6.80;64.00
21439;DHT22;10880;50.302;18.736;2022-12-10T17:07:55;6.80;64.10
21439;DHT22;10880;50.302;18.736;2022-12-10T17:10:22;6.80;64.20
21439;DHT22;10880;50.302;18.736;2022-12-10T17:13:13;6.80;64.10
21439;DHT22;10880;50.302;18.736;2022-12-10T17:15:41;6.80;64.10
21439;DHT22;10880;50.302;18.736;2022-12-10T17:18:16;6.80;64.80
21439;DHT22;10880;50.302;18.736;2022-12-10T17:20:45;6.80;64.20
21439;DHT22;10880;50.302;18.736;2022-12-10T17:23:13;6.80;64.20
21439;DHT22;10880;50.302;18.736;2022-12-10T17:25:41;6.80;64.20
21439;DHT22;10880;50.302;18.736;2022-12-10T17:28:19;6.80;64.80
21439;DHT22;10880;50.302;18.736;2022-12-10T17:30:46;6.80;64.40
21439;DHT22;10880;50.302;18.736;2022-12-10T17:33:19;6.90;64.30
21439;DHT22;10880;50.302;18.736;2022-12-10T17:35:46;6.80;64.20
21439;DHT22;10880;50.302;18.736;2022-12-10T17:38:19;6.90;64.30
21439;DHT22;10880;50.302;18.736;2022-12-10T17:40:46;6.90;65.00
21439;DHT22;10880;50.302;18.736;2022-12-10T17:45:40;6.90;64.30
21439;DHT22;10880;50.302;18.736;2022-12-10T17:48:10;6.90;64.80
21439;DHT22;10880;50.302;18.736;2022-12-10T17:50:38;6.90;64.90
21439;DHT22;10880;50.302;18.736;2022-12-10T17:53:06;6.90;64.30
21439;DHT22;10880;50.302;18.736;2022-12-10T17:55:56;6.90;64.30
21439;DHT22;10880;50.302;18.736;2022-12-10T17:58:24;6.90;64.30
21439;DHT22;10880;50.302;18.736;2022-12-10T18:00:51;6.90;64.30
21439;DHT22;10880;50.302;18.736;2022-12-10T18:03:18;6.90;64.30
21439;DHT22;10880;50.302;18.736;2022-12-10T18:05:45;6.90;64.30
21439;DHT22;10880;50.302;18.736;2022-12-10T18:08:13;6.90;64.30
21439;DHT22;10880;50.302;18.736;2022-12-10T18:10:41;6.90;64.00
21439;DHT22;10880;50.302;18.736;2022-12-10T18:15:36;6.60;63.80
21439;DHT22;10880;50.302;18.736;2022-12-10T18:18:04;6.90;64.60
21439;DHT22;10880;50.302;18.736;2022-12-10T18:20:36;6.90;64.20
21439;DHT22;10880;50.302;18.736;2022-12-10T18:23:07;6.90;64.30
21439;DHT22;10880;50.302;18.736;2022-12-10T18:25:35;6.90;64.80
21439;DHT22;10880;50.302;18.736;2022-12-10T18:28:41;6.90;64.40
21439;DHT22;10880;50.302;18.736;2022-12-10T18:31:15;6.90;64.20
21439;DHT22;10880;50.302;18.736;2022-12-10T18:33:45;6.90;64.30
21439;DHT22;10880;50.302;18.736;2022-12-10T18:36:21;6.90;64.30
21439;DHT22;10880;50.302;18.736;2022-12-10T18:38:49;6.90;64.30
21439;DHT22;10880;50.302;18.736;2022-12-10T18:41:17;6.90;64.80
21439;DHT22;10880;50.302;18.736;2022-12-10T18:43:44;6.90;64.30
21439;DHT22;10880;50.302;18.736;2022-12-10T18:46:16;6.90;64.30
21439;DHT22;10880;50.302;18.736;2022-12-10T18:48:44;6.90;64.30
21439;DHT22;10880;50.302;18.736;2022-12-10T18:51:13;6.90;64.60
21439;DHT22;10880;50.302;18.736;2022-12-10T18:53:41;6.90;64.30
21439;DHT22;10880;50.302;18.736;2022-12-10T18:56:13;6.90;64.30
21439;DHT22;10880;50.302;18.736;2022-12-10T18:58:41;7.00;64.40
21439;DHT22;10880;50.302;18.736;2022-12-10T19:01:09;6.90;64.30
21439;DHT22;10880;50.302;18.736;2022-12-10T19:03:36;6.90;64.70
21439;DHT22;10880;50.302;18.736;2022-12-10T19:06:03;6.90;64.50
21439;DHT22;10880;50.302;18.736;2022-12-10T19:10:59;6.90;64.30
21439;DHT22;10880;50.302;18.736;2022-12-10T19:15:53;7.00;64.30
21439;DHT22;10880;50.302;18.736;2022-12-10T19:18:19;6.90;64.20
21439;DHT22;10880;50.302;18.736;2022-12-10T19:20:46;6.90;64.20
21439;DHT22;10880;50.302;18.736;2022-12-10T19:23:13;6.90;64.30